ホバート の空港の天気 - METARとTAF

ホバート国際空港 ( YMHB / HBA ) - オーストラリア タスマニア州、Cambridge
飛行場実況気象(Metar)
観測時間08/14 06:00 AEST (08/13 20:00 UTC)
風向・風速南南東 8m/s
視程5000m
天気現象弱い雨
少しの雲 雲底高度 150m
全天を覆う雲 雲底高度 460m
気温11℃
湿度94%
気圧1004hPa
METARYMHB 132000Z 16016KT 5000 -RA FEW005 OVC015 11/10 Q1004 RF00.8/016.2
過去の天気等 Google飛行場航空写真 Wunderground天気予報

過去48時間のMETAR

飛行場予報(TAF)
発表時間: 8/14 06:07 AEST (8/13 20:07 UTC)
予報対象時間: 14日7時 AEST ~ 15日4時 AEST
風向・風速南南東 10m/s 瞬間風速 15m/s
視程6000m
天気現象しゅう雨
全天の8割程度の雲 雲底高度 300m
14日12時 AEST から
風向・風速東南東 8m/s 瞬間風速 13m/s
視程10km以上
天気現象弱いしゅう雨
全天の8割程度の雲 雲底高度 460m
14日22時 AEST から
風向・風速東 6m/s
視程10km以上
天気現象弱いしゅう雨
全天の8割程度の雲 雲底高度 460m
14日7時 AEST ~ 14日12時 AEST に一時的に
風向・風速南南東 13m/s 瞬間風速 21m/s
視程2000m
天気現象強いしゅう雨
全天の8割程度の雲 雲底高度 150m
TAF YMHB 132007Z 1321/1418 16020G30KT 6000 SHRA BKN010
FM140200 12015G25KT 9999 -SHRA BKN015
FM141200 09012KT 9999 -SHRA BKN015
TEMPO 1321/1402 16025G40KT 2000 +SHRA BKN005 INTER 1402/1418 10018G28KT 4000 SHRA BKN008